Time;durP1;ratioP1;P1;durP2;ratioP2;P2;SDS_P1;SDS_P2;PMS_P1;PMS_P2;Temp;Humidity;BMP_temperature;BMP_pressure;BME280_temperature;BME280_humidity;BME280_pressure;Samples;Min_cycle;Max_cycle;Signal;HPM_P1;HPM_P2
2023/01/10 00:00:50;;;;;;;0.20;0.20;;;8.30;99.90;;;8.23;86.89;100324.94;5015326;28;20634;-67
2023/01/10 00:03:17;;;;;;;0.77;0.50;;;8.30;99.90;;;8.23;85.85;100330.13;5026607;28;20639;-66
2023/01/10 00:05:44;;;;;;;0.50;0.50;;;8.30;99.90;;;8.24;85.96;100338.78;5011406;28;20634;-66
2023/01/10 00:08:15;;;;;;;0.70;0.70;;;8.30;99.90;;;8.19;86.22;100339.06;4973932;28;20649;-67
2023/01/10 00:10:42;;;;;;;0.40;0.40;;;8.20;99.90;;;8.19;85.84;100351.22;4973475;28;20630;-67
2023/01/10 00:13:23;;;;;;;0.47;0.47;;;8.20;99.90;;;8.19;86.34;100349.47;4974509;28;20614;-66
2023/01/10 00:15:53;;;;;;;0.47;0.47;;;8.20;99.90;;;8.17;86.36;100348.75;5009008;28;20705;-68
2023/01/10 00:18:21;;;;;;;0.87;0.60;;;8.20;99.90;;;8.17;85.74;100358.28;5010721;28;20669;-67
2023/01/10 00:20:48;;;;;;;0.40;0.40;;;8.20;99.90;;;8.18;86.41;100353.00;4990422;28;20610;-67
2023/01/10 00:23:17;;;;;;;0.50;0.50;;;8.20;99.90;;;8.18;85.33;100354.75;4986474;28;20632;-67
2023/01/10 00:25:44;;;;;;;0.50;0.50;;;8.20;99.90;;;8.16;85.94;100361.81;4995394;28;21207;-67
2023/01/10 00:28:19;;;;;;;0.57;0.57;;;8.20;99.90;;;8.14;86.07;100376.69;5022691;28;20641;-67
2023/01/10 00:31:05;;;;;;;0.40;0.40;;;8.20;99.90;;;8.12;87.07;100375.94;5018511;28;20644;-67
2023/01/10 00:33:34;;;;;;;0.80;0.67;;;8.20;99.90;;;8.14;86.72;100380.13;5027200;28;21030;-69
2023/01/10 00:36:03;;;;;;;1.40;0.70;;;8.20;99.90;;;8.12;86.32;100389.78;5011323;28;20610;-67
2023/01/10 00:38:34;;;;;;;0.70;0.70;;;8.20;99.90;;;8.07;86.04;100398.81;5008076;28;21292;-66
2023/01/10 00:41:02;;;;;;;0.47;0.47;;;8.10;99.90;;;7.97;86.45;100408.13;4978155;28;20688;-67
2023/01/10 00:46:14;;;;;;;0.20;0.20;;;8.00;99.90;;;7.86;87.03;100416.59;5013473;28;20995;-67
2023/01/10 00:48:44;;;;;;;0.50;0.50;;;7.90;99.90;;;7.76;86.91;100424.16;4993726;28;20742;-66
2023/01/10 00:51:11;;;;;;;0.40;0.40;;;7.80;99.90;;;7.77;86.26;100433.59;5011107;28;21243;-67
2023/01/10 00:53:38;;;;;;;0.50;0.43;;;7.80;99.90;;;7.79;86.62;100447.31;5008770;28;20648;-66
2023/01/10 00:56:05;;;;;;;0.40;0.40;;;7.80;99.90;;;7.74;84.28;100453.75;4994335;28;20625;-67
2023/01/10 00:58:32;;;;;;;0.30;0.30;;;7.90;99.90;;;7.73;84.37;100463.31;5007616;28;20673;-66
2023/01/10 01:00:59;;;;;;;0.60;0.30;;;7.80;99.90;;;7.71;84.77;100478.16;4997394;28;20618;-67
2023/01/10 01:03:26;;;;;;;0.40;0.40;;;7.70;99.90;;;7.65;84.54;100473.34;5014325;28;20612;-65
2023/01/10 01:05:53;;;;;;;0.30;0.30;;;7.70;99.90;;;7.63;84.23;100476.97;5003282;28;20633;-67
2023/01/10 01:08:20;;;;;;;0.30;0.30;;;7.70;99.90;;;7.60;84.60;100487.56;5005762;28;20646;-67
2023/01/10 01:10:47;;;;;;;0.30;0.30;;;7.60;99.90;;;7.54;84.13;100493.09;5012680;28;20640;-67
2023/01/10 01:13:18;;;;;;;0.20;0.20;;;7.60;99.90;;;7.53;84.14;100494.88;5012758;28;20637;-65
2023/01/10 01:15:46;;;;;;;0.30;0.30;;;7.60;99.90;;;7.53;84.26;100494.88;5011376;28;20641;-67
2023/01/10 01:18:20;;;;;;;0.40;0.40;;;7.60;99.90;;;7.50;83.76;100507.19;5012249;28;20677;-67
2023/01/10 01:20:52;;;;;;;0.30;0.30;;;7.60;99.90;;;7.50;83.82;100512.38;5012712;28;20663;-68
2023/01/10 01:23:19;;;;;;;0.90;0.43;;;7.60;99.90;;;7.46;83.21;100516.09;4995588;28;20620;-67
2023/01/10 01:25:50;;;;;;;0.50;0.50;;;7.50;99.90;;;7.45;83.95;100517.84;5015397;28;20636;-67
2023/01/10 01:28:17;;;;;;;0.40;0.40;;;7.50;99.90;;;7.43;83.76;100532.69;5020300;28;20657;-67
2023/01/10 01:30:44;;;;;;;1.00;0.30;;;7.50;99.90;;;7.40;84.13;100540.69;4995050;28;20628;-67
2023/01/10 01:33:12;;;;;;;0.30;0.30;;;7.50;99.90;;;7.38;84.17;100545.13;5012551;28;20641;-66
2023/01/10 01:35:44;;;;;;;0.30;0.30;;;7.40;99.90;;;7.32;84.29;100545.50;5013553;28;20728;-67
2023/01/10 01:38:12;;;;;;;0.30;0.30;;;7.40;99.90;;;7.33;84.47;100562.72;4995236;28;20677;-67
2023/01/10 01:40:40;;;;;;;0.30;0.30;;;7.40;99.90;;;7.39;85.00;100564.16;5012502;28;20629;-67
2023/01/10 01:43:28;;;;;;;0.30;0.30;;;7.40;99.90;;;7.43;83.35;100568.22;4995765;28;20602;-67
2023/01/10 01:46:00;;;;;;;1.07;1.07;;;7.50;99.90;;;7.40;84.03;100568.41;4994797;28;21209;-67
2023/01/10 01:48:38;;;;;;;0.30;0.30;;;7.50;99.90;;;7.32;84.71;100581.84;4995462;28;20637;-66
2023/01/10 01:51:18;;;;;;;0.40;0.40;;;7.40;99.90;;;7.31;84.15;100600.91;4995988;28;20605;-66
2023/01/10 01:53:53;;;;;;;0.30;0.30;;;7.40;99.90;;;7.29;84.97;100613.16;4981591;28;20637;-67
2023/01/10 01:56:47;;;;;;;0.40;0.40;;;7.30;99.90;;;7.28;85.02;100615.84;4995340;28;20616;-67
2023/01/10 01:59:35;;;;;;;0.40;0.33;;;7.30;99.90;;;7.34;84.71;100628.47;4986674;28;20658;-67
2023/01/10 02:02:17;;;;;;;0.40;0.40;;;7.40;99.90;;;7.37;84.92;100629.09;4989847;28;20691;-67
2023/01/10 02:04:54;;;;;;;0.47;0.47;;;7.40;99.90;;;7.41;85.68;100643.56;4984109;28;20665;-70
2023/01/10 02:07:24;;;;;;;0.40;0.40;;;7.50;99.90;;;7.43;85.58;100652.09;4998090;28;20660;-66
2023/01/10 02:10:04;;;;;;;0.47;0.47;;;7.50;99.90;;;7.48;85.61;100652.69;4990480;28;20622;-67
2023/01/10 02:12:32;;;;;;;0.70;0.60;;;7.50;99.90;;;7.49;85.15;100664.75;4977773;28;20620;-67
2023/01/10 02:14:59;;;;;;;0.30;0.30;;;7.50;99.90;;;7.49;84.74;100664.75;5011599;28;21216;-67
2023/01/10 02:17:26;;;;;;;0.50;0.40;;;7.60;99.90;;;7.52;84.64;100667.16;5011921;28;20656;-67
2023/01/10 02:20:05;;;;;;;0.40;0.33;;;7.60;99.90;;;7.48;85.25;100664.81;5011965;28;21271;-67
2023/01/10 02:23:09;;;;;;;1.57;0.57;;;7.50;99.90;;;7.44;85.42;100665.94;5000660;28;20680;-67
2023/01/10 02:26:37;;;;;;;0.40;0.40;;;7.50;99.90;;;7.47;84.94;100668.34;5002162;28;21223;-67
2023/01/10 02:29:40;;;;;;;0.50;0.50;;;7.50;99.90;;;7.44;84.12;100671.97;5008546;28;21191;-68
2023/01/10 02:32:13;;;;;;;0.57;0.57;;;7.50;99.90;;;7.45;84.16;100671.03;5011318;28;20639;-67
2023/01/10 02:35:24;;;;;;;1.40;0.40;;;7.50;99.90;;;7.46;83.87;100677.91;5013922;28;20644;-67
2023/01/10 02:38:46;;;;;;;0.40;0.40;;;7.50;99.90;;;7.45;84.35;100672.81;5016787;28;20695;-66
2023/01/10 02:41:29;;;;;;;0.77;0.50;;;7.50;99.90;;;7.44;84.09;100674.56;4999751;28;20648;-67
2023/01/10 02:44:24;;;;;;;0.40;0.40;;;7.50;99.90;;;7.44;83.17;100677.16;5005489;28;20644;-66
2023/01/10 02:46:51;;;;;;;0.43;0.43;;;7.50;99.90;;;7.45;83.32;100681.41;4977060;28;20645;-67
2023/01/10 02:49:18;;;;;;;0.40;0.40;;;7.50;99.90;;;7.47;83.68;100679.59;5012082;28;20633;-66
2023/01/10 02:51:45;;;;;;;0.37;0.37;;;7.50;99.90;;;7.44;83.66;100684.94;5008612;28;20637;-67
2023/01/10 02:54:19;;;;;;;0.40;0.40;;;7.50;99.90;;;7.40;82.99;100693.00;5010615;28;20630;-66
2023/01/10 02:56:47;;;;;;;0.30;0.30;;;7.50;99.90;;;7.42;82.67;100701.53;4994815;28;20642;-66
2023/01/10 03:00:07;;;;;;;0.60;0.50;;;7.50;99.90;;;7.40;82.49;100706.81;5016654;28;20658;-67
2023/01/10 03:03:16;;;;;;;0.70;0.70;;;7.50;99.90;;;7.39;82.01;100710.31;4991885;28;20622;-67
2023/01/10 03:06:39;;;;;;;1.43;0.60;;;7.50;99.90;;;7.39;82.18;100720.69;4999766;28;20634;-67
2023/01/10 03:09:25;;;;;;;0.30;0.30;;;7.50;99.90;;;7.37;81.55;100724.34;4992436;28;20645;-67
2023/01/10 03:12:12;;;;;;;0.63;0.63;;;7.50;99.90;;;7.32;81.80;100728.94;5010128;28;21017;-67
2023/01/10 03:14:41;;;;;;;0.40;0.40;;;7.40;99.90;;;7.27;82.00;100729.19;5005200;28;20630;-68
2023/01/10 03:17:10;;;;;;;0.50;0.50;;;7.30;99.90;;;7.25;82.41;100735.38;4973631;28;20643;-66
2023/01/10 03:19:46;;;;;;;0.60;0.60;;;7.30;99.90;;;7.23;82.11;100742.44;4980791;28;20657;-69
2023/01/10 03:22:13;;;;;;;0.40;0.40;;;7.30;99.90;;;7.21;82.87;100745.13;4994911;28;21177;-66
2023/01/10 03:24:48;;;;;;;0.60;0.57;;;7.30;99.90;;;7.21;81.99;100745.13;5005411;28;20626;-67
2023/01/10 03:28:05;;;;;;;0.43;0.43;;;7.30;99.90;;;7.20;82.94;100758.19;4999597;28;21044;-67
2023/01/10 03:30:59;;;;;;;0.50;0.50;;;7.30;99.90;;;7.18;83.63;100768.63;4969225;28;20636;-66
2023/01/10 03:33:30;;;;;;;0.43;0.43;;;7.30;99.90;;;7.22;83.18;100772.72;5016661;28;21021;-65
2023/01/10 03:36:21;;;;;;;0.50;0.50;;;7.30;99.90;;;7.28;82.94;100781.94;5007184;28;21101;-66
2023/01/10 03:38:56;;;;;;;0.53;0.53;;;7.30;99.90;;;7.32;82.24;100779.09;4992668;28;20680;-67
2023/01/10 03:41:53;;;;;;;0.63;0.37;;;7.40;99.90;;;7.35;82.50;100793.63;4992935;28;21228;-67
2023/01/10 03:44:43;;;;;;;0.50;0.50;;;7.40;99.90;;;7.36;81.66;100796.16;4988830;28;20638;-66
2023/01/10 03:47:38;;;;;;;0.97;0.63;;;7.40;99.90;;;7.37;81.50;100805.63;4985745;28;20650;-66
2023/01/10 03:50:21;;;;;;;2.50;0.90;;;7.50;99.90;;;7.37;81.65;100812.59;4987751;28;20637;-66
2023/01/10 03:52:48;;;;;;;0.73;0.73;;;7.40;99.90;;;7.36;81.90;100813.50;4978682;28;20683;-68
2023/01/10 03:55:22;;;;;;;0.50;0.50;;;7.40;99.90;;;7.35;81.63;100830.81;5017010;28;20636;-66
2023/01/10 03:57:48;;;;;;;0.60;0.60;;;7.40;99.90;;;7.30;82.90;100821.63;4990046;28;20751;-67
2023/01/10 04:00:16;;;;;;;0.87;0.80;;;7.40;99.90;;;7.28;82.89;100832.09;5010273;28;20690;-66
2023/01/10 04:02:43;;;;;;;3.37;0.60;;;7.30;99.90;;;7.25;83.67;100832.25;5010066;28;21095;-68
2023/01/10 04:05:11;;;;;;;0.80;0.80;;;7.30;99.90;;;7.23;84.08;100841.88;5010606;28;20640;-66
2023/01/10 04:07:38;;;;;;;1.50;0.93;;;7.30;99.90;;;7.22;84.87;100849.78;4993590;28;20648;-67
2023/01/10 04:10:06;;;;;;;0.80;0.80;;;7.30;99.90;;;7.24;84.97;100853.13;5009798;28;21201;-66
2023/01/10 04:12:33;;;;;;;1.43;0.90;;;7.30;99.90;;;7.22;84.07;100853.19;4993656;28;21010;-67
2023/01/10 04:15:01;;;;;;;0.87;0.87;;;7.30;99.90;;;7.24;84.78;100856.53;4994287;28;21005;-66
2023/01/10 04:17:28;;;;;;;0.60;0.60;;;7.30;99.90;;;7.19;84.13;100855.97;5009744;28;21009;-66
2023/01/10 04:19:55;;;;;;;0.90;0.90;;;7.30;99.90;;;7.18;84.90;100853.44;5001479;28;20692;-67
2023/01/10 04:22:22;;;;;;;0.50;0.50;;;7.20;99.90;;;7.19;85.00;100855.97;4991664;28;20611;-68
2023/01/10 04:24:50;;;;;;;0.83;0.83;;;7.30;99.90;;;7.17;84.12;100860.41;4991359;28;20681;-67
2023/01/10 04:27:19;;;;;;;3.40;0.93;;;7.20;99.90;;;7.20;84.42;100868.00;5014250;28;20653;-66
2023/01/10 04:29:46;;;;;;;0.70;0.70;;;7.30;99.90;;;7.20;84.59;100856.81;5009865;28;21139;-67
2023/01/10 04:32:13;;;;;;;0.70;0.70;;;7.30;99.90;;;7.22;84.35;100870.53;5027535;28;20623;-67
2023/01/10 04:34:40;;;;;;;1.77;0.87;;;7.30;99.90;;;7.22;84.43;100866.16;4990853;28;21213;-67
2023/01/10 04:37:06;;;;;;;1.17;0.87;;;7.30;99.90;;;7.21;84.43;100868.84;4995893;28;21240;-67
2023/01/10 04:39:33;;;;;;;0.80;0.80;;;7.30;99.90;;;7.21;84.18;100871.44;5017229;28;20664;-67
2023/01/10 04:42:00;;;;;;;0.60;0.60;;;7.30;99.90;;;7.19;84.50;100879.31;5024561;28;20631;-66
2023/01/10 04:44:27;;;;;;;2.63;0.80;;;7.30;99.90;;;7.20;84.93;100882.75;4995318;28;20637;-66
2023/01/10 04:46:54;;;;;;;0.87;0.87;;;7.30;99.90;;;7.16;83.68;100889.00;5013920;28;20717;-68
2023/01/10 04:49:21;;;;;;;1.00;1.00;;;7.20;99.90;;;7.10;84.38;100887.59;5007298;28;20630;-67
2023/01/10 04:51:48;;;;;;;0.90;0.90;;;7.20;99.90;;;7.09;84.83;100892.88;5009260;28;20664;-67
2023/01/10 04:54:20;;;;;;;0.87;0.87;;;7.20;99.90;;;7.11;84.92;100907.44;5013752;28;20633;-66
2023/01/10 04:56:47;;;;;;;1.50;0.80;;;7.20;99.90;;;7.11;84.11;100909.19;5013753;28;20664;-68
2023/01/10 04:59:14;;;;;;;1.83;0.50;;;7.20;99.90;;;7.08;84.06;100905.00;5009188;28;20662;-68
2023/01/10 05:01:41;;;;;;;2.20;0.50;;;7.20;99.90;;;7.10;84.22;100910.94;4994395;28;21188;-66
2023/01/10 05:04:09;;;;;;;2.80;1.17;;;7.20;99.90;;;7.10;84.74;100915.28;4997291;28;20641;-67
2023/01/10 05:06:38;;;;;;;1.07;0.70;;;7.20;99.90;;;7.07;85.18;100917.13;5000597;28;20626;-67
2023/01/10 05:09:07;;;;;;;3.47;0.70;;;7.20;99.90;;;7.03;84.66;100915.59;5001724;28;20661;-67
2023/01/10 05:11:34;;;;;;;2.83;1.07;;;7.10;99.90;;;7.03;85.40;100923.41;5013637;28;21010;-67
2023/01/10 05:14:01;;;;;;;0.40;0.40;;;7.10;99.90;;;7.05;85.32;100931.09;4993839;28;20626;-67
2023/01/10 05:16:28;;;;;;;0.73;0.73;;;7.10;99.90;;;7.07;85.40;100939.63;5003580;28;20634;-67
2023/01/10 05:18:55;;;;;;;0.67;0.67;;;7.20;99.90;;;7.12;84.73;100941.97;5011541;28;20664;-66
2023/01/10 05:21:23;;;;;;;0.50;0.50;;;7.20;99.90;;;7.14;84.19;100941.00;5000907;28;20637;-67
2023/01/10 05:23:50;;;;;;;0.50;0.50;;;7.20;99.90;;;7.20;83.44;100939.84;5012768;28;20981;-67
2023/01/10 05:26:22;;;;;;;0.50;0.50;;;7.20;99.90;;;7.26;84.05;100944.72;5012352;28;20687;-67
2023/01/10 05:28:49;;;;;;;1.10;1.00;;;7.30;99.90;;;7.26;83.45;100935.13;5012565;28;20663;-67
2023/01/10 05:31:18;;;;;;;0.40;0.40;;;7.30;99.90;;;7.25;83.51;100951.66;5007005;28;20669;-67
2023/01/10 05:33:50;;;;;;;0.40;0.40;;;7.30;99.90;;;7.26;83.50;100945.53;5016711;28;20646;-66
2023/01/10 05:36:18;;;;;;;0.53;0.30;;;7.30;99.90;;;7.30;83.41;100948.81;5017661;28;20643;-67
2023/01/10 05:38:45;;;;;;;0.67;0.67;;;7.40;99.90;;;7.35;82.60;100950.22;4992187;28;21255;-67
2023/01/10 05:41:12;;;;;;;0.50;0.50;;;7.40;99.90;;;7.36;82.69;100948.47;4989068;28;20638;-67
2023/01/10 05:43:39;;;;;;;2.67;0.80;;;7.40;99.90;;;7.31;82.26;100956.50;5001059;28;21076;-67
2023/01/10 05:46:06;;;;;;;0.70;0.70;;;7.40;99.90;;;7.31;81.66;100953.91;5003033;28;21000;-67
2023/01/10 05:48:33;;;;;;;2.10;0.87;;;7.40;99.90;;;7.35;81.57;100964.97;5011918;28;20656;-68
2023/01/10 05:51:00;;;;;;;0.60;0.60;;;7.40;99.90;;;7.35;82.65;100973.59;5012815;28;20695;-66
2023/01/10 05:53:27;;;;;;;1.90;0.87;;;7.40;99.90;;;7.38;82.18;100975.19;5011682;28;20639;-69
2023/01/10 05:56:00;;;;;;;1.70;0.90;;;7.50;99.90;;;7.38;81.74;100991.63;4996711;28;20629;-67
2023/01/10 05:58:28;;;;;;;1.57;0.80;;;7.50;99.90;;;7.41;81.96;100988.84;5017122;28;20663;-67
2023/01/10 06:00:56;;;;;;;1.37;1.10;;;7.50;99.90;;;7.44;81.60;100990.44;5026960;28;20632;-67
2023/01/10 06:03:25;;;;;;;0.90;0.90;;;7.50;99.90;;;7.44;81.88;100993.03;5013956;28;20617;-67
2023/01/10 06:05:56;;;;;;;1.33;0.67;;;7.50;99.90;;;7.45;82.01;100994.72;5015246;28;20641;-67
2023/01/10 06:08:24;;;;;;;0.60;0.60;;;7.50;99.90;;;7.46;82.01;101002.41;4995416;28;20688;-67
2023/01/10 06:10:51;;;;;;;0.60;0.60;;;7.60;99.90;;;7.49;81.83;100999.69;4978924;28;20626;-69
2023/01/10 06:13:18;;;;;;;2.50;1.40;;;7.60;99.90;;;7.51;81.39;101015.16;4995199;28;20644;-67
2023/01/10 06:15:45;;;;;;;2.30;1.30;;;7.60;99.90;;;7.51;80.81;101012.56;4994119;28;21272;-68
2023/01/10 06:18:13;;;;;;;2.30;1.13;;;7.60;99.90;;;7.52;81.13;101020.25;4994442;28;21217;-67
2023/01/10 06:20:43;;;;;;;1.60;0.63;;;7.60;99.90;;;7.50;81.77;101035.09;5001074;28;20668;-67
2023/01/10 06:23:09;;;;;;;2.13;1.10;;;7.60;99.90;;;7.50;81.28;101029.06;4975780;28;20601;-67
2023/01/10 06:25:39;;;;;;;0.50;0.50;;;7.60;99.90;;;7.53;81.75;101034.94;5013005;28;20642;-67
2023/01/10 06:28:08;;;;;;;0.80;0.80;;;7.60;99.90;;;7.54;81.66;101028.81;5021907;28;20677;-66
2023/01/10 06:30:35;;;;;;;8.13;1.20;;;7.60;99.90;;;7.53;81.06;101034.09;5001684;28;20622;-67
2023/01/10 06:33:07;;;;;;;0.93;0.90;;;7.60;99.90;;;7.48;81.32;101034.34;4977106;28;21188;-66
2023/01/10 06:35:35;;;;;;;1.83;1.00;;;7.60;99.90;;;7.43;81.25;101048.50;4981279;28;20634;-66
2023/01/10 06:38:02;;;;;;;0.77;0.77;;;7.50;99.90;;;7.38;81.74;101053.91;4985255;28;20645;-68
2023/01/10 06:40:29;;;;;;;2.97;0.70;;;7.50;99.90;;;7.35;82.27;101061.84;4986272;28;20668;-67
2023/01/10 06:42:57;;;;;;;1.10;0.70;;;7.40;99.90;;;7.32;81.57;101075.00;4979560;28;20684;-67
2023/01/10 06:45:24;;;;;;;1.77;0.80;;;7.40;99.90;;;7.32;81.93;101085.38;4994044;28;21255;-67
2023/01/10 06:47:51;;;;;;;1.27;1.20;;;7.40;99.90;;;7.35;82.75;101094.75;4993570;28;20630;-67
2023/01/10 06:50:18;;;;;;;1.70;0.77;;;7.40;99.90;;;7.35;82.18;101098.19;5022339;28;20645;-67
2023/01/10 06:52:45;;;;;;;5.80;1.20;;;7.40;99.90;;;7.39;82.63;101097.13;5024959;28;20633;-67
2023/01/10 06:55:12;;;;;;;2.15;1.45;;;7.40;99.90;;;7.39;82.17;101099.72;5011041;28;20794;-67
2023/01/10 06:57:38;;;;;;;1.47;1.03;;;7.50;99.90;;;7.42;81.60;101099.56;4997476;28;20238;-67
2023/01/10 07:00:09;;;;;;;2.00;0.83;;;7.50;99.90;;;7.43;82.21;101090.03;4999076;28;20661;-67
2023/01/10 07:02:36;;;;;;;0.63;0.63;;;7.50;99.90;;;7.46;81.03;101079.47;5021671;28;20628;-67
2023/01/10 07:05:03;;;;;;;4.40;1.20;;;7.50;99.90;;;7.41;80.65;101077.09;5006939;28;20642;-67
2023/01/10 07:07:30;;;;;;;1.03;1.00;;;7.50;99.90;;;7.43;81.30;101093.44;4984276;28;20666;-67
2023/01/10 07:09:58;;;;;;;4.73;1.50;;;7.50;99.90;;;7.40;81.00;101109.19;5010297;28;21236;-67
2023/01/10 07:12:25;;;;;;;2.03;1.30;;;7.50;99.90;;;7.43;80.67;101126.38;5004991;28;20638;-67
2023/01/10 07:14:52;;;;;;;1.30;0.90;;;7.50;99.90;;;7.39;81.04;101128.25;5001882;28;20625;-67
2023/01/10 07:17:19;;;;;;;4.37;1.77;;;7.50;99.90;;;7.40;80.72;101135.16;5011598;28;20668;-67
2023/01/10 07:19:46;;;;;;;0.90;0.90;;;7.40;99.90;;;7.43;80.29;101132.38;5010882;28;20680;-67
2023/01/10 07:22:13;;;;;;;2.50;1.23;;;7.50;99.90;;;7.46;80.17;101137.44;5010405;28;20648;-67
2023/01/10 07:24:40;;;;;;;1.30;1.20;;;7.50;99.90;;;7.43;80.45;101147.97;5019393;28;21184;-67
2023/01/10 07:27:07;;;;;;;4.60;1.60;;;7.50;99.90;;;7.44;80.44;101154.00;5015664;28;20728;-68
2023/01/10 07:29:33;;;;;;;1.20;1.10;;;7.50;99.90;;;7.47;80.34;101161.66;5007854;28;20630;-66
2023/01/10 07:32:00;;;;;;;1.03;1.03;;;7.50;99.90;;;7.51;79.73;101169.22;4992978;28;20658;-67
2023/01/10 07:34:27;;;;;;;1.93;1.10;;;7.60;99.90;;;7.52;80.15;101168.28;5010348;28;20675;-67
2023/01/10 07:36:54;;;;;;;1.73;1.50;;;7.60;99.90;;;7.55;80.00;101162.09;4991675;28;20735;-69
2023/01/10 07:39:21;;;;;;;1.47;1.37;;;7.60;99.90;;;7.53;78.75;101166.53;5006332;28;20669;-68
2023/01/10 07:41:49;;;;;;;3.67;1.60;;;7.60;99.90;;;7.52;79.11;101165.69;5009634;28;21033;-67
2023/01/10 07:44:16;;;;;;;1.13;1.03;;;7.60;99.90;;;7.52;78.78;101175.22;4992961;28;20664;-67
2023/01/10 07:46:43;;;;;;;1.33;1.23;;;7.60;99.90;;;7.55;79.98;101175.06;5005913;28;20630;-65
2023/01/10 07:49:10;;;;;;;1.03;1.03;;;7.60;99.90;;;7.56;78.84;101172.38;5023915;28;21222;-66
2023/01/10 07:51:36;;;;;;;0.93;0.90;;;7.60;99.90;;;7.56;77.89;101177.59;5028704;28;20639;-68
2023/01/10 07:54:03;;;;;;;1.20;1.10;;;7.60;99.90;;;7.55;78.04;101178.53;5009705;28;21231;-67
2023/01/10 07:56:31;;;;;;;1.50;1.47;;;7.60;99.90;;;7.55;78.02;101185.47;5002137;28;20645;-67
2023/01/10 07:59:00;;;;;;;2.23;0.70;;;7.60;99.90;;;7.54;78.02;101191.56;5017132;28;20641;-67
2023/01/10 08:01:28;;;;;;;3.57;1.43;;;7.60;99.90;;;7.56;78.07;101198.34;4989893;28;20695;-67
2023/01/10 08:03:57;;;;;;;0.93;0.73;;;7.60;99.90;;;7.60;77.97;101207.66;4992645;28;21153;-65
2023/01/10 08:06:24;;;;;;;0.77;0.77;;;7.70;99.90;;;7.59;77.30;101197.38;5001687;28;20629;-67
2023/01/10 08:08:51;;;;;;;1.33;1.23;;;7.70;99.90;;;7.60;77.10;101199.88;5019358;28;20623;-67
2023/01/10 08:11:18;;;;;;;6.53;1.17;;;7.70;99.90;;;7.64;76.78;101206.63;5013137;28;20637;-67
2023/01/10 08:13:45;;;;;;;2.97;1.20;;;7.70;99.90;;;7.68;75.60;101194.31;5014414;28;20716;-67
2023/01/10 08:16:14;;;;;;;2.60;1.00;;;7.80;99.90;;;7.69;75.04;101194.22;5014497;28;20640;-68
2023/01/10 08:18:42;;;;;;;0.80;0.80;;;7.80;99.90;;;7.69;74.74;101198.56;5013619;28;20734;-67
2023/01/10 08:21:09;;;;;;;4.23;1.57;;;7.70;99.90;;;7.70;74.11;101210.66;5013625;28;20669;-67
2023/01/10 08:23:36;;;;;;;1.63;1.00;;;7.70;99.90;;;7.70;73.57;101216.69;5019902;28;20682;-67
2023/01/10 08:26:04;;;;;;;4.93;1.33;;;7.70;99.90;;;7.65;73.92;101210.03;4996050;28;20686;-66
2023/01/10 08:28:31;;;;;;;1.07;0.80;;;7.70;99.90;;;7.66;74.13;101204.78;5029708;28;20665;-67
2023/01/10 08:31:04;;;;;;;2.60;1.43;;;7.70;99.90;;;7.72;73.95;101208.81;5007090;28;20633;-67
2023/01/10 08:33:31;;;;;;;2.60;1.40;;;7.80;99.90;;;7.73;74.21;101211.34;5007697;28;20676;-67
2023/01/10 08:35:57;;;;;;;0.70;0.70;;;7.80;99.90;;;7.75;75.21;101214.69;5018020;28;20640;-67
2023/01/10 08:38:24;;;;;;;1.03;1.03;;;7.80;99.90;;;7.75;74.70;101219.88;5027273;28;20660;-66
2023/01/10 08:40:51;;;;;;;1.20;0.90;;;7.90;99.90;;;7.73;74.55;101216.53;5020752;28;20665;-67
2023/01/10 08:43:18;;;;;;;0.90;0.90;;;7.80;99.90;;;7.67;75.23;101221.19;5012748;28;20638;-66
2023/01/10 08:45:46;;;;;;;1.20;1.10;;;7.80;99.90;;;7.64;74.69;101227.41;5005018;28;20624;-67
2023/01/10 08:48:13;;;;;;;1.73;0.80;;;7.70;99.90;;;7.67;74.57;101229.81;4994160;28;20653;-67
2023/01/10 08:50:39;;;;;;;0.50;0.50;;;7.70;99.90;;;7.67;75.12;101229.81;5000248;28;20680;-67
2023/01/10 08:53:06;;;;;;;0.70;0.70;;;7.70;99.90;;;7.72;74.91;101234.78;5020306;28;20690;-67
2023/01/10 08:55:34;;;;;;;2.63;1.43;;;7.80;99.90;;;7.79;74.70;101251.75;5025211;28;21210;-68
2023/01/10 08:58:01;;;;;;;1.13;0.80;;;7.80;99.90;;;7.78;75.74;101248.31;5045295;22;20768;-67
2023/01/10 09:00:29;;;;;;;0.43;0.43;;;7.80;99.90;;;7.71;76.51;101235.69;5011779;28;20672;-65
2023/01/10 09:02:56;;;;;;;0.77;0.77;;;7.80;99.90;;;7.67;76.35;101236.78;5013346;28;20613;-67
2023/01/10 09:05:24;;;;;;;0.80;0.80;;;7.70;99.90;;;7.66;77.31;101232.50;4996997;28;20644;-66
2023/01/10 09:08:00;;;;;;;1.00;0.83;;;7.70;99.90;;;7.62;77.73;101234.41;5002088;28;20645;-65
2023/01/10 09:10:28;;;;;;;0.30;0.30;;;7.70;99.90;;;7.55;77.90;101235.66;5012876;28;20640;-67
2023/01/10 09:13:03;;;;;;;2.50;0.90;;;7.60;99.90;;;7.53;78.90;101237.47;5013307;28;20671;-65
2023/01/10 09:15:34;;;;;;;3.00;0.90;;;7.60;99.90;;;7.54;79.24;101246.94;5005812;28;20696;-65
2023/01/10 09:18:05;;;;;;;2.10;1.00;;;7.60;99.90;;;7.52;79.26;101251.38;4998956;28;20657;-65
2023/01/10 09:20:35;;;;;;;5.30;1.43;;;7.60;99.90;;;7.54;79.02;101262.53;4997119;28;21307;-66
2023/01/10 09:23:16;;;;;;;3.10;0.73;;;7.60;99.90;;;7.53;79.42;101265.19;5012951;28;20629;-65
2023/01/10 09:25:47;;;;;;;0.70;0.70;;;7.60;99.90;;;7.49;79.74;101267.13;4979334;28;20626;-65
2023/01/10 09:28:15;;;;;;;4.27;1.77;;;7.50;99.90;;;7.49;79.51;101276.66;4998487;28;20730;-65
2023/01/10 09:30:42;;;;;;;1.17;1.10;;;7.50;99.90;;;7.56;78.98;101275.44;5022092;28;20683;-65
2023/01/10 09:33:09;;;;;;;2.50;1.57;;;7.60;99.90;;;7.63;78.45;101285.44;5013158;28;20647;-66
2023/01/10 09:35:39;;;;;;;1.47;1.00;;;7.70;99.90;;;7.69;78.49;101292.94;5013525;28;21080;-67
2023/01/10 09:38:13;;;;;;;2.10;0.80;;;7.70;99.90;;;7.73;77.20;101284.06;4994931;28;20656;-66
2023/01/10 09:40:58;;;;;;;1.03;0.80;;;7.80;99.90;;;7.75;77.48;101287.44;4994100;28;21319;-65
2023/01/10 09:44:01;;;;;;;7.07;1.50;;;7.80;99.90;;;7.73;76.79;101299.66;5010961;28;20656;-66
2023/01/10 09:46:46;;;;;;;4.60;0.80;;;7.80;99.90;;;7.78;77.80;101307.22;5011386;28;21176;-65
2023/01/10 09:49:41;;;;;;;1.70;1.10;;;7.80;99.90;;;7.83;77.35;101313.88;5013309;28;20668;-65
2023/01/10 09:52:24;;;;;;;0.80;0.80;;;7.90;99.90;;;7.87;77.98;101308.53;4997687;28;21209;-65
2023/01/10 09:54:55;;;;;;;3.30;1.50;;;7.90;99.90;;;7.90;78.06;101314.38;4984649;28;21209;-66
2023/01/10 09:57:23;;;;;;;2.10;0.90;;;7.90;99.90;;;7.94;77.33;101307.31;4997312;28;20673;-66
2023/01/10 09:59:52;;;;;;;0.70;0.70;;;7.90;99.90;;;8.00;77.03;101305.25;4995004;28;20661;-66
2023/01/10 10:02:19;;;;;;;2.40;1.17;;;8.00;99.90;;;7.98;77.87;101309.69;5011471;28;20651;-65
2023/01/10 10:05:23;;;;;;;1.67;1.30;;;8.00;99.90;;;8.03;78.26;101307.66;5004828;28;20634;-66
2023/01/10 10:07:55;;;;;;;2.50;0.90;;;8.10;99.90;;;8.08;78.35;101310.03;4995106;28;20648;-66
2023/01/10 10:10:50;;;;;;;4.70;0.90;;;8.10;99.90;;;8.12;77.65;101303.75;5001122;28;21329;-67
2023/01/10 10:14:08;;;;;;;2.57;1.43;;;8.20;99.90;;;8.10;79.08;101308.19;4984650;28;21278;-66
2023/01/10 10:17:19;;;;;;;2.80;1.27;;;8.20;99.90;;;8.14;78.69;101305.38;4992321;28;21119;-68
2023/01/10 10:20:42;;;;;;;0.90;0.90;;;8.20;99.90;;;8.11;79.18;101317.69;4984628;28;20656;-65
2023/01/10 10:23:47;;;;;;;1.50;0.60;;;8.20;99.90;;;8.12;79.30;101311.56;5012519;28;20613;-65
2023/01/10 10:26:28;;;;;;;1.70;1.00;;;8.10;99.90;;;8.13;78.82;101302.84;5008042;28;20620;-67
2023/01/10 10:29:15;;;;;;;2.00;1.00;;;8.20;99.90;;;8.17;78.73;101309.56;5015417;28;20680;-65
2023/01/10 10:32:42;;;;;;;0.90;0.87;;;8.20;99.90;;;8.20;79.16;101304.22;4983824;28;21001;-67
2023/01/10 10:35:37;;;;;;;1.70;1.30;;;8.20;99.90;;;8.26;78.82;101303.94;4970941;28;20619;-67
2023/01/10 10:38:17;;;;;;;3.17;1.00;;;8.30;99.90;;;8.36;78.60;101305.13;4932624;28;20663;-66
2023/01/10 10:40:47;;;;;;;1.23;0.67;;;8.40;99.90;;;8.46;77.38;101295.94;4989460;28;20666;-66
2023/01/10 10:43:24;;;;;;;0.80;0.77;;;8.50;99.90;;;8.57;76.90;101293.59;5000921;28;20628;-66
2023/01/10 10:45:57;;;;;;;5.70;2.10;;;8.60;99.90;;;8.80;76.55;101289.75;5013027;28;21207;-67
2023/01/10 10:48:33;;;;;;;2.93;1.03;;;8.80;99.90;;;8.99;75.59;101295.63;5007748;28;21033;-66
2023/01/10 10:51:38;;;;;;;1.03;0.90;;;9.00;99.90;;;9.05;73.56;101301.34;4991721;28;20630;-66
2023/01/10 10:54:10;;;;;;;2.17;1.03;;;9.10;99.90;;;9.05;72.98;101301.34;5005768;28;20985;-67